createdAt,value
2019-02-14T00:00:15.424Z,1017.30
2019-02-14T00:01:15.416Z,1017.28
2019-02-14T00:02:15.407Z,1017.25
2019-02-14T00:03:15.396Z,1017.28
2019-02-14T00:04:15.450Z,1017.26
2019-02-14T00:05:16.736Z,1017.27
2019-02-14T00:06:15.368Z,1017.28
2019-02-14T00:07:15.347Z,1017.30
2019-02-14T00:08:15.345Z,1017.34
2019-02-14T00:09:15.344Z,1017.29
2019-02-14T00:10:15.320Z,1017.31
2019-02-14T00:11:15.360Z,1017.31
2019-02-14T00:12:15.293Z,1017.32
2019-02-14T00:13:15.287Z,1017.33
2019-02-14T00:14:15.293Z,1017.36
2019-02-14T00:15:15.263Z,1017.33
2019-02-14T00:16:15.248Z,1017.36
2019-02-14T00:17:15.292Z,1017.35
2019-02-14T00:18:15.231Z,1017.38
2019-02-14T00:19:15.246Z,1017.40
2019-02-14T00:20:15.203Z,1017.35
2019-02-14T00:21:15.192Z,1017.35
2019-02-14T00:22:15.185Z,1017.33
2019-02-14T00:23:15.208Z,1017.32
2019-02-14T00:24:15.184Z,1017.29
2019-02-14T00:25:15.155Z,1017.29
2019-02-14T00:26:15.138Z,1017.24
2019-02-14T00:27:15.130Z,1017.31
2019-02-14T00:28:15.112Z,1017.22
2019-02-14T00:29:15.156Z,1017.23
2019-02-14T00:30:15.096Z,1017.27
2019-02-14T00:31:15.084Z,1017.26
2019-02-14T00:32:15.078Z,1017.23
2019-02-14T00:33:15.059Z,1017.24
2019-02-14T00:34:15.070Z,1017.19
2019-02-14T00:35:15.039Z,1017.23
2019-02-14T00:36:15.066Z,1017.23
2019-02-14T00:37:15.021Z,1017.24
2019-02-14T00:38:15.008Z,1017.21
2019-02-14T00:39:15.014Z,1017.27
2019-02-14T00:40:14.982Z,1017.24
2019-02-14T00:41:14.968Z,1017.23
2019-02-14T00:42:15.008Z,1017.25
2019-02-14T00:43:14.956Z,1017.26
2019-02-14T00:44:14.959Z,1017.24
2019-02-14T00:45:14.931Z,1017.28
2019-02-14T00:46:14.912Z,1017.21
2019-02-14T00:47:14.904Z,1017.21
2019-02-14T00:48:14.891Z,1017.22
2019-02-14T00:49:14.907Z,1017.25
2019-02-14T00:50:14.927Z,1017.14
2019-02-14T00:51:14.861Z,1017.20
2019-02-14T00:52:14.846Z,1017.15
2019-02-14T00:53:14.840Z,1017.16
2019-02-14T00:54:14.850Z,1017.13
2019-02-14T00:55:14.819Z,1017.15
2019-02-14T00:56:14.804Z,1017.09
2019-02-14T00:57:14.792Z,1017.08
2019-02-14T00:58:14.825Z,1017.13
2019-02-14T00:59:14.796Z,1017.15
2019-02-14T01:00:14.762Z,1017.15
2019-02-14T01:01:14.756Z,1017.24
2019-02-14T01:02:14.740Z,1017.22
2019-02-14T01:03:14.729Z,1017.20
2019-02-14T01:04:14.736Z,1017.23
2019-02-14T01:05:16.379Z,1017.25
2019-02-14T01:06:14.696Z,1017.25
2019-02-14T01:07:14.678Z,1017.22
2019-02-14T01:08:14.669Z,1017.24
2019-02-14T01:09:14.656Z,1017.23
2019-02-14T01:10:14.674Z,1017.28
2019-02-14T01:11:14.636Z,1017.29
2019-02-14T01:12:14.679Z,1017.28
2019-02-14T01:13:14.615Z,1017.20
2019-02-14T01:14:14.606Z,1017.21
2019-02-14T01:15:14.617Z,1017.20
2019-02-14T01:16:14.631Z,1017.15
2019-02-14T01:17:14.569Z,1017.20
2019-02-14T01:18:14.562Z,1017.21
2019-02-14T01:19:15.501Z,1017.20
2019-02-14T01:20:14.617Z,1017.19
2019-02-14T01:21:14.523Z,1017.21
2019-02-14T01:22:14.519Z,1017.25
2019-02-14T01:23:14.505Z,1017.21
2019-02-14T01:24:14.488Z,1017.18
2019-02-14T01:25:14.501Z,1017.21
2019-02-14T01:26:14.511Z,1017.21
2019-02-14T01:27:14.458Z,1017.21
2019-02-14T01:28:14.449Z,1017.19
2019-02-14T01:29:14.438Z,1017.22
2019-02-14T01:30:14.444Z,1017.23
2019-02-14T01:31:14.414Z,1017.19
2019-02-14T01:32:14.425Z,1017.16
2019-02-14T01:33:14.395Z,1017.17
2019-02-14T01:34:14.382Z,1017.17
2019-02-14T01:35:14.392Z,1017.21
2019-02-14T01:36:14.355Z,1017.19
2019-02-14T01:37:14.346Z,1017.23
2019-02-14T01:38:14.380Z,1017.18
2019-02-14T01:39:14.325Z,1017.25
2019-02-14T01:40:14.338Z,1017.24
2019-02-14T01:41:14.301Z,1017.23
2019-02-14T01:42:14.295Z,1017.23
2019-02-14T01:43:14.293Z,1017.22
2019-02-14T01:44:14.299Z,1017.23
2019-02-14T01:45:14.280Z,1017.25
2019-02-14T01:46:14.245Z,1017.21
2019-02-14T01:47:14.233Z,1017.25
2019-02-14T01:48:14.227Z,1017.23
2019-02-14T01:49:14.214Z,1017.23
2019-02-14T01:50:14.264Z,1017.24
2019-02-14T01:51:14.195Z,1017.23
2019-02-14T01:52:14.180Z,1017.30
2019-02-14T01:53:14.173Z,1017.27
2019-02-14T01:54:14.159Z,1017.31
2019-02-14T01:55:14.171Z,1017.29
2019-02-14T01:56:14.169Z,1017.25
2019-02-14T01:57:14.122Z,1017.25
2019-02-14T01:58:14.114Z,1017.28
2019-02-14T01:59:14.105Z,1017.29
2019-02-14T02:00:14.114Z,1017.25
2019-02-14T02:01:14.092Z,1017.22
2019-02-14T02:02:14.117Z,1017.28
2019-02-14T02:03:14.061Z,1017.31
2019-02-14T02:04:14.052Z,1017.28
2019-02-14T02:05:14.060Z,1017.26
2019-02-14T02:06:14.027Z,1017.26
2019-02-14T02:07:14.020Z,1017.23
2019-02-14T02:08:14.003Z,1017.24
2019-02-14T02:09:14.038Z,1017.28
2019-02-14T02:10:14.008Z,1017.24
2019-02-14T02:11:13.970Z,1017.29
2019-02-14T02:12:13.962Z,1017.27
2019-02-14T02:13:13.946Z,1017.26
2019-02-14T02:14:13.943Z,1017.24
2019-02-14T02:15:13.952Z,1017.22
2019-02-14T02:16:13.964Z,1017.20
2019-02-14T02:17:13.904Z,1017.18
2019-02-14T02:18:13.892Z,1017.20
2019-02-14T02:19:13.883Z,1017.19
2019-02-14T02:20:13.892Z,1017.19
2019-02-14T02:21:13.860Z,1017.16
2019-02-14T02:22:13.897Z,1017.19
2019-02-14T02:23:13.840Z,1017.14
2019-02-14T02:24:13.826Z,1017.15
2019-02-14T02:25:13.838Z,1017.16
2019-02-14T02:26:13.801Z,1017.15
2019-02-14T02:27:13.795Z,1017.13
2019-02-14T02:28:13.816Z,1017.10
2019-02-14T02:29:13.769Z,1017.10
2019-02-14T02:30:13.815Z,1017.08
2019-02-14T02:31:13.750Z,1017.01
2019-02-14T02:32:13.741Z,1017.03
2019-02-14T02:33:13.727Z,1017.09
2019-02-14T02:34:13.749Z,1017.08
2019-02-14T02:35:13.737Z,1017.07
2019-02-14T02:36:13.695Z,1017.12
2019-02-14T02:37:13.681Z,1017.16
2019-02-14T02:38:13.675Z,1017.18
2019-02-14T02:39:13.659Z,1017.14
2019-02-14T02:40:13.672Z,1017.17
2019-02-14T02:41:13.668Z,1017.17
2019-02-14T02:42:13.627Z,1017.16
2019-02-14T02:43:13.617Z,1017.15
2019-02-14T02:44:13.610Z,1017.15
2019-02-14T02:45:13.634Z,1017.11
2019-02-14T02:46:13.580Z,1017.10
2019-02-14T02:47:13.611Z,1017.14
2019-02-14T02:48:13.589Z,1017.12
2019-02-14T02:49:13.554Z,1017.14
2019-02-14T02:50:13.545Z,1017.09
2019-02-14T02:51:13.555Z,1017.06
2019-02-14T02:52:13.513Z,1017.06
2019-02-14T02:53:13.559Z,1017.09
2019-02-14T02:54:13.494Z,1017.10
2019-02-14T02:55:13.486Z,1017.06
2019-02-14T02:56:13.491Z,1017.06
2019-02-14T02:57:13.469Z,1017.09
2019-02-14T02:58:13.450Z,1017.06
2019-02-14T02:59:14.264Z,1017.05
2019-02-14T03:00:13.469Z,1017.05
2019-02-14T03:01:13.436Z,1017.08
2019-02-14T03:02:13.408Z,1017.09
2019-02-14T03:03:13.395Z,1017.08
2019-02-14T03:04:13.384Z,1017.05
2019-02-14T03:05:13.377Z,1017.04
2019-02-14T03:06:13.432Z,1017.05
2019-02-14T03:07:13.350Z,1017.06
2019-02-14T03:08:13.339Z,1016.99
2019-02-14T03:09:13.332Z,1017.05
2019-02-14T03:10:13.315Z,1017.01
2019-02-14T03:11:13.329Z,1017.05
2019-02-14T03:12:13.337Z,1017.03
2019-02-14T03:13:13.290Z,1016.98
2019-02-14T03:14:13.273Z,1017.03
2019-02-14T03:15:13.261Z,1017.03
2019-02-14T03:16:13.276Z,1017.04
2019-02-14T03:17:13.242Z,1017.03
2019-02-14T03:18:13.258Z,1017.03
2019-02-14T03:19:13.221Z,1017.00
2019-02-14T03:20:13.208Z,1017.00
2019-02-14T03:21:13.224Z,1016.99
2019-02-14T03:22:13.230Z,1017.04
2019-02-14T03:23:13.170Z,1017.05
2019-02-14T03:24:13.168Z,1017.07
2019-02-14T03:25:13.181Z,1017.09
2019-02-14T03:26:13.172Z,1017.06
2019-02-14T03:27:13.130Z,1017.07
2019-02-14T03:28:13.124Z,1017.10
2019-02-14T03:29:13.108Z,1017.10
2019-02-14T03:30:13.100Z,1017.09
2019-02-14T03:31:13.111Z,1017.09
2019-02-14T03:32:13.079Z,1017.07
2019-02-14T03:33:13.061Z,1017.12
2019-02-14T03:34:13.089Z,1017.11
2019-02-14T03:35:13.041Z,1017.10
2019-02-14T03:36:18.886Z,1017.10
2019-02-14T03:37:14.018Z,1017.13
2019-02-14T03:38:13.006Z,1017.12
2019-02-14T03:39:12.999Z,1017.13
2019-02-14T03:40:13.021Z,1017.14
2019-02-14T03:41:12.992Z,1017.12
2019-02-14T03:42:12.963Z,1017.12
2019-02-14T03:43:12.948Z,1017.14
2019-02-14T03:44:12.940Z,1017.14
2019-02-14T03:45:12.931Z,1017.14
2019-02-14T03:46:12.989Z,1017.14
2019-02-14T03:47:12.906Z,1017.10
2019-02-14T03:48:12.897Z,1017.13
2019-02-14T03:49:12.884Z,1017.13
2019-02-14T03:50:12.871Z,1017.15
2019-02-14T03:51:12.883Z,1017.18
2019-02-14T03:52:12.892Z,1017.16
2019-02-14T03:53:12.840Z,1017.17
2019-02-14T03:54:12.829Z,1017.14
2019-02-14T03:55:12.820Z,1017.17
2019-02-14T03:56:12.827Z,1017.13
2019-02-14T03:57:12.793Z,1017.14
2019-02-14T03:58:12.836Z,1017.09
2019-02-14T03:59:12.775Z,1017.13
2019-02-14T04:00:12.762Z,1017.20
2019-02-14T04:01:12.775Z,1017.21
2019-02-14T04:02:12.743Z,1017.18
2019-02-14T04:03:12.727Z,1017.17
2019-02-14T04:04:12.767Z,1017.19
2019-02-14T04:05:12.706Z,1017.21
2019-02-14T04:06:12.723Z,1017.20
2019-02-14T04:07:12.682Z,1017.20
2019-02-14T04:08:12.682Z,1017.23
2019-02-14T04:09:12.664Z,1017.24
2019-02-14T04:10:12.655Z,1017.20
2019-02-14T04:11:12.720Z,1017.22
2019-02-14T04:12:12.628Z,1017.25
2019-02-14T04:13:12.623Z,1017.24
2019-02-14T04:14:12.647Z,1017.23
2019-02-14T04:15:12.593Z,1017.28
2019-02-14T04:16:12.614Z,1017.29
2019-02-14T04:17:12.613Z,1017.27
2019-02-14T04:18:12.565Z,1017.24
2019-02-14T04:19:12.561Z,1017.27
2019-02-14T04:20:12.542Z,1017.26
2019-02-14T04:21:12.549Z,1017.26
2019-02-14T04:22:12.519Z,1017.21
2019-02-14T04:23:12.541Z,1017.22
2019-02-14T04:24:12.494Z,1017.22
2019-02-14T04:25:12.484Z,1017.23
2019-02-14T04:26:12.494Z,1017.27
2019-02-14T04:27:12.460Z,1017.30
2019-02-14T04:28:12.454Z,1017.31
2019-02-14T04:29:12.481Z,1017.33
2019-02-14T04:30:12.432Z,1017.31
2019-02-14T04:31:12.451Z,1017.31
2019-02-14T04:32:12.408Z,1017.33
2019-02-14T04:33:12.395Z,1017.35
2019-02-14T04:34:12.382Z,1017.32
2019-02-14T04:35:12.447Z,1017.37
2019-02-14T04:36:12.367Z,1017.39
2019-02-14T04:37:12.376Z,1017.39
2019-02-14T04:38:12.340Z,1017.39
2019-02-14T04:39:12.330Z,1017.41
2019-02-14T04:40:12.319Z,1017.41
2019-02-14T04:41:12.347Z,1017.43
2019-02-14T04:42:12.322Z,1017.42
2019-02-14T04:43:12.284Z,1017.43
2019-02-14T04:44:12.277Z,1017.42
2019-02-14T04:45:12.267Z,1017.40
2019-02-14T04:46:12.254Z,1017.41
2019-02-14T04:47:12.295Z,1017.42
2019-02-14T04:48:12.232Z,1017.40
2019-02-14T04:49:12.219Z,1017.45
2019-02-14T04:50:12.206Z,1017.43
2019-02-14T04:51:12.197Z,1017.43
2019-02-14T04:52:12.209Z,1017.42
2019-02-14T04:53:12.218Z,1017.45
2019-02-14T04:54:12.169Z,1017.51
2019-02-14T04:55:12.150Z,1017.46
2019-02-14T04:56:12.141Z,1017.47
2019-02-14T04:57:12.153Z,1017.52
2019-02-14T04:58:12.118Z,1017.51
2019-02-14T04:59:12.142Z,1017.53
2019-02-14T05:00:12.099Z,1017.55
2019-02-14T05:01:12.088Z,1017.56
2019-02-14T05:02:12.099Z,1017.57
2019-02-14T05:03:12.063Z,1017.58
2019-02-14T05:04:12.054Z,1017.58
2019-02-14T05:05:12.085Z,1017.57
2019-02-14T05:06:12.031Z,1017.62
2019-02-14T05:07:12.045Z,1017.61
2019-02-14T05:08:12.012Z,1017.58
2019-02-14T05:09:12.006Z,1017.59
2019-02-14T05:10:11.993Z,1017.61
2019-02-14T05:11:12.020Z,1017.56
2019-02-14T05:12:11.985Z,1017.58
2019-02-14T05:13:11.954Z,1017.55
2019-02-14T05:14:11.944Z,1017.58
2019-02-14T05:15:11.935Z,1017.59
2019-02-14T05:16:11.920Z,1017.57
2019-02-14T05:17:11.985Z,1017.56
2019-02-14T05:18:11.897Z,1017.60
2019-02-14T05:19:11.886Z,1017.60
2019-02-14T05:20:11.875Z,1017.61
2019-02-14T05:21:11.866Z,1017.62
2019-02-14T05:22:11.873Z,1017.60
2019-02-14T05:23:11.878Z,1017.58
2019-02-14T05:24:11.832Z,1017.58
2019-02-14T05:25:11.822Z,1017.60
2019-02-14T05:26:11.807Z,1017.63
2019-02-14T05:27:11.820Z,1017.58
2019-02-14T05:28:11.788Z,1017.60
2019-02-14T05:29:11.823Z,1017.57
2019-02-14T05:30:11.778Z,1017.55
2019-02-14T05:31:11.755Z,1017.55
2019-02-14T05:32:11.774Z,1017.50
2019-02-14T05:33:11.734Z,1017.52
2019-02-14T05:34:11.730Z,1017.45
2019-02-14T05:35:11.709Z,1017.52
2019-02-14T05:36:11.742Z,1017.52
2019-02-14T05:37:11.714Z,1017.55
2019-02-14T05:38:11.679Z,1017.53
2019-02-14T05:39:11.665Z,1017.58
2019-02-14T05:40:11.655Z,1017.59
2019-02-14T05:41:11.641Z,1017.58
2019-02-14T05:42:11.684Z,1017.55
2019-02-14T05:43:11.619Z,1017.54
2019-02-14T05:44:11.607Z,1017.53
2019-02-14T05:45:11.599Z,1017.52
2019-02-14T05:46:11.589Z,1017.47
2019-02-14T05:47:11.598Z,1017.48
2019-02-14T05:48:11.603Z,1017.53
2019-02-14T05:49:11.553Z,1017.51
2019-02-14T05:50:11.542Z,1017.54
2019-02-14T05:51:11.534Z,1017.52
2019-02-14T05:52:11.541Z,1017.53
2019-02-14T05:53:11.508Z,1017.59
2019-02-14T05:54:11.543Z,1017.61
2019-02-14T05:55:11.487Z,1017.57
2019-02-14T05:56:11.476Z,1017.58
2019-02-14T05:57:11.487Z,1017.56
2019-02-14T05:58:11.459Z,1017.51
2019-02-14T05:59:11.439Z,1017.55
2019-02-14T06:00:11.475Z,1017.50
2019-02-14T06:01:11.420Z,1017.46
2019-02-14T06:02:11.434Z,1017.48
2019-02-14T06:03:11.398Z,1017.50
2019-02-14T06:04:11.384Z,1017.54
2019-02-14T06:05:11.375Z,1017.52
2019-02-14T06:06:11.403Z,1017.50
2019-02-14T06:07:11.378Z,1017.53
2019-02-14T06:08:11.345Z,1017.52
2019-02-14T06:09:11.327Z,1017.53
2019-02-14T06:10:11.370Z,1017.50
2019-02-14T06:11:11.311Z,1017.52
2019-02-14T06:12:11.360Z,1017.53
2019-02-14T06:13:11.284Z,1017.51
2019-02-14T06:14:11.276Z,1017.52
2019-02-14T06:15:11.264Z,1017.52
2019-02-14T06:16:11.254Z,1017.55
2019-02-14T06:17:11.267Z,1017.52
2019-02-14T06:18:11.289Z,1017.51
2019-02-14T06:19:11.222Z,1017.52
2019-02-14T06:20:11.214Z,1017.55
2019-02-14T06:21:11.197Z,1017.51
2019-02-14T06:22:11.192Z,1017.52
2019-02-14T06:23:11.194Z,1017.56
2019-02-14T06:24:18.196Z,1017.57
2019-02-14T06:25:11.158Z,1017.58
2019-02-14T06:26:18.173Z,1017.63
2019-02-14T06:27:11.130Z,1017.63
2019-02-14T06:28:11.140Z,1017.65
2019-02-14T06:29:11.107Z,1017.63
2019-02-14T06:30:11.141Z,1017.68
2019-02-14T06:31:11.090Z,1017.68
2019-02-14T06:32:11.077Z,1017.65
2019-02-14T06:33:11.085Z,1017.67
2019-02-14T06:34:11.093Z,1017.67
2019-02-14T06:35:11.045Z,1017.69
2019-02-14T06:36:11.109Z,1017.74
2019-02-14T06:37:11.023Z,1017.72
2019-02-14T06:38:11.042Z,1017.79
2019-02-14T06:39:11.000Z,1017.80
2019-02-14T06:40:11.014Z,1017.78
2019-02-14T06:41:10.980Z,1017.82
2019-02-14T06:42:10.963Z,1017.85
2019-02-14T06:43:10.986Z,1017.84
2019-02-14T06:44:10.943Z,1017.88
2019-02-14T06:45:10.936Z,1017.89
2019-02-14T06:46:10.967Z,1017.92
2019-02-14T06:47:10.912Z,1017.88
2019-02-14T06:48:10.916Z,1017.94
2019-02-14T06:49:10.885Z,1017.90
2019-02-14T06:50:10.879Z,1017.89
2019-02-14T06:51:10.864Z,1017.93
2019-02-14T06:52:10.889Z,1017.92
2019-02-14T06:53:10.865Z,1017.93
2019-02-14T06:54:10.836Z,1017.96
2019-02-14T06:55:10.828Z,1017.95
2019-02-14T06:56:10.809Z,1017.97
2019-02-14T06:57:10.799Z,1018.01
2019-02-14T06:58:12.819Z,1017.98
2019-02-14T06:59:10.778Z,1018.06
2019-02-14T07:00:10.765Z,1018.08
2019-02-14T07:01:10.758Z,1018.04
2019-02-14T07:02:10.743Z,1018.09
2019-02-14T07:03:10.754Z,1018.12
2019-02-14T07:04:10.776Z,1018.14
2019-02-14T07:05:10.713Z,1018.16
2019-02-14T07:06:10.704Z,1018.24
2019-02-14T07:07:18.406Z,1018.24
2019-02-14T07:08:11.695Z,1018.23
2019-02-14T07:09:10.663Z,1018.31
2019-02-14T07:10:10.708Z,1018.31
2019-02-14T07:11:10.647Z,1018.35
2019-02-14T07:12:10.633Z,1018.35
2019-02-14T07:13:10.686Z,1018.36
2019-02-14T07:14:10.611Z,1018.37
2019-02-14T07:15:10.599Z,1018.35
2019-02-14T07:16:10.619Z,1018.39
2019-02-14T07:17:10.577Z,1018.36
2019-02-14T07:18:10.588Z,1018.38
2019-02-14T07:19:10.598Z,1018.37
2019-02-14T07:20:10.539Z,1018.34
2019-02-14T07:21:10.565Z,1018.38
2019-02-14T07:22:10.519Z,1018.35
2019-02-14T07:23:10.533Z,1018.34
2019-02-14T07:24:10.524Z,1018.37
2019-02-14T07:25:10.494Z,1018.39
2019-02-14T07:26:10.475Z,1018.39
2019-02-14T07:27:10.465Z,1018.35
2019-02-14T07:28:10.486Z,1018.34
2019-02-14T07:29:10.446Z,1018.32
2019-02-14T07:30:10.460Z,1018.35
2019-02-14T07:31:10.423Z,1018.33
2019-02-14T07:32:10.407Z,1018.35
2019-02-14T07:33:10.421Z,1018.28
2019-02-14T07:34:10.387Z,1018.32
2019-02-14T07:35:10.380Z,1018.28
2019-02-14T07:36:10.453Z,1018.28
2019-02-14T07:37:10.363Z,1018.27
2019-02-14T07:38:10.372Z,1018.25
2019-02-14T07:39:11.128Z,1018.22
2019-02-14T07:40:10.331Z,1018.21
2019-02-14T07:41:10.312Z,1018.25
2019-02-14T07:42:10.322Z,1018.29
2019-02-14T07:43:10.313Z,1018.30
2019-02-14T07:44:10.283Z,1018.26
2019-02-14T07:45:10.267Z,1018.34
2019-02-14T07:46:10.260Z,1018.37
2019-02-14T07:47:10.242Z,1018.38
2019-02-14T07:48:10.255Z,1018.38
2019-02-14T07:49:10.267Z,1018.33
2019-02-14T07:50:10.221Z,1018.39
2019-02-14T07:51:10.199Z,1018.36
2019-02-14T07:52:10.188Z,1018.35
2019-02-14T07:53:10.216Z,1018.30
2019-02-14T07:54:10.166Z,1018.34
2019-02-14T07:55:10.242Z,1018.35
2019-02-14T07:56:10.145Z,1018.37
2019-02-14T07:57:10.132Z,1018.37
2019-02-14T07:58:10.152Z,1018.38
2019-02-14T07:59:10.116Z,1018.39
2019-02-14T08:00:10.140Z,1018.38
2019-02-14T08:01:10.087Z,1018.41
2019-02-14T08:02:10.074Z,1018.37
2019-02-14T08:03:10.068Z,1018.34
2019-02-14T08:04:10.081Z,1018.31
2019-02-14T08:05:10.048Z,1018.37
2019-02-14T08:06:10.062Z,1018.37
2019-02-14T08:07:10.019Z,1018.41
2019-02-14T08:08:10.008Z,1018.36
2019-02-14T08:09:10.043Z,1018.37
2019-02-14T08:10:10.001Z,1018.41
2019-02-14T08:11:09.977Z,1018.42
2019-02-14T08:12:09.963Z,1018.43
2019-02-14T08:13:09.955Z,1018.39
2019-02-14T08:14:10.007Z,1018.41
2019-02-14T08:15:09.940Z,1018.43
2019-02-14T08:16:09.929Z,1018.41
2019-02-14T08:17:09.909Z,1018.34
2019-02-14T08:18:09.895Z,1018.37
2019-02-14T08:19:09.906Z,1018.33
2019-02-14T08:20:09.904Z,1018.35
2019-02-14T08:21:09.864Z,1018.34
2019-02-14T08:22:09.855Z,1018.34
2019-02-14T08:23:09.842Z,1018.36
2019-02-14T08:24:09.849Z,1018.35
2019-02-14T08:25:09.825Z,1018.35
2019-02-14T08:26:11.096Z,1018.31
2019-02-14T08:27:09.797Z,1018.30
2019-02-14T08:28:09.784Z,1018.33
2019-02-14T08:29:09.801Z,1018.29
2019-02-14T08:30:09.765Z,1018.30
2019-02-14T08:31:09.754Z,1018.28
2019-02-14T08:32:09.782Z,1018.32
2019-02-14T08:33:09.730Z,1018.31
2019-02-14T08:34:09.749Z,1018.33
2019-02-14T08:35:09.709Z,1018.33
2019-02-14T08:36:09.706Z,1018.29
2019-02-14T08:37:09.684Z,1018.29
2019-02-14T08:38:09.675Z,1018.25
2019-02-14T08:39:09.756Z,1018.23
2019-02-14T08:40:09.663Z,1018.18
2019-02-14T08:41:09.642Z,1018.19
2019-02-14T08:42:09.650Z,1018.24
2019-02-14T08:43:09.616Z,1018.22
2019-02-14T08:44:09.639Z,1018.21
2019-02-14T08:45:09.601Z,1018.19
2019-02-14T08:46:09.670Z,1018.19
2019-02-14T08:47:09.605Z,1018.20
2019-02-14T08:48:09.560Z,1018.22
2019-02-14T08:49:09.594Z,1018.22
2019-02-14T08:50:09.540Z,1018.21
2019-02-14T08:51:09.562Z,1018.26
2019-02-14T08:52:09.517Z,1018.24
2019-02-14T08:53:09.562Z,1018.20
2019-02-14T08:54:09.516Z,1018.18
2019-02-14T08:55:10.183Z,1018.19
2019-02-14T08:56:09.507Z,1018.13
2019-02-14T08:57:09.461Z,1018.18
2019-02-14T08:58:09.475Z,1018.15
2019-02-14T08:59:09.460Z,1018.24
2019-02-14T09:00:09.427Z,1018.20
2019-02-14T09:01:09.454Z,1018.18
2019-02-14T09:02:09.408Z,1018.20
2019-02-14T09:03:09.393Z,1018.22
2019-02-14T09:04:09.441Z,1018.19
2019-02-14T09:05:09.381Z,1018.20
2019-02-14T09:06:09.364Z,1018.21
2019-02-14T09:07:11.234Z,1018.21
2019-02-14T09:08:09.344Z,1018.19
2019-02-14T09:09:09.389Z,1018.25
2019-02-14T09:10:09.318Z,1018.26
2019-02-14T09:11:09.306Z,1018.20
2019-02-14T09:12:09.299Z,1018.21
2019-02-14T09:13:16.940Z,1018.20
2019-02-14T09:14:10.323Z,1018.21
2019-02-14T09:15:09.261Z,1018.22
2019-02-14T09:16:09.251Z,1018.23
2019-02-14T09:17:09.309Z,1018.21
2019-02-14T09:18:09.236Z,1018.19
2019-02-14T09:19:09.241Z,1018.25
2019-02-14T09:20:09.250Z,1018.18
2019-02-14T09:21:09.197Z,1018.21
2019-02-14T09:22:09.193Z,1018.16
2019-02-14T09:23:09.176Z,1018.15
2019-02-14T09:24:09.189Z,1018.19
2019-02-14T09:25:09.183Z,1018.17
2019-02-14T09:26:09.141Z,1018.18
2019-02-14T09:27:09.133Z,1018.22
2019-02-14T09:28:09.117Z,1018.18
2019-02-14T09:29:09.134Z,1018.26
2019-02-14T09:30:09.104Z,1018.22
2019-02-14T09:31:09.116Z,1018.21
2019-02-14T09:32:09.074Z,1018.22
2019-02-14T09:33:09.063Z,1018.23
2019-02-14T09:34:09.107Z,1018.19
2019-02-14T09:35:09.042Z,1018.20
2019-02-14T09:36:09.034Z,1018.21
2019-02-14T09:37:09.053Z,1018.25
2019-02-14T09:38:09.009Z,1018.18
2019-02-14T09:39:09.019Z,1018.18
2019-02-14T09:40:08.983Z,1018.19
2019-02-14T09:41:08.977Z,1018.20
2019-02-14T09:42:08.986Z,1018.19
2019-02-14T09:43:08.986Z,1018.23
2019-02-14T09:44:08.962Z,1018.21
2019-02-14T09:45:08.951Z,1018.23
2019-02-14T09:46:08.948Z,1018.29
2019-02-14T09:47:08.927Z,1018.32
2019-02-14T09:48:08.944Z,1018.34
2019-02-14T09:49:08.985Z,1018.30
2019-02-14T09:50:08.908Z,1018.37
2019-02-14T09:51:08.862Z,1018.32
2019-02-14T09:52:08.852Z,1018.34
2019-02-14T09:53:08.994Z,1018.35
2019-02-14T09:54:08.841Z,1018.31
2019-02-14T09:55:08.966Z,1018.34
2019-02-14T09:56:08.812Z,1018.37
2019-02-14T09:57:08.808Z,1018.33
2019-02-14T09:58:08.794Z,1018.35
2019-02-14T09:59:08.852Z,1018.35
2019-02-14T10:00:08.786Z,1018.34
2019-02-14T10:01:08.746Z,1018.34
2019-02-14T10:02:08.761Z,1018.31
2019-02-14T10:03:08.726Z,1018.28
2019-02-14T10:04:08.753Z,1018.28
2019-02-14T10:05:08.732Z,1018.32
2019-02-14T10:06:08.693Z,1018.32
2019-02-14T10:07:08.691Z,1018.35
2019-02-14T10:08:12.939Z,1018.38
2019-02-14T10:09:08.759Z,1018.36
2019-02-14T10:10:08.784Z,1018.39
2019-02-14T10:11:08.632Z,1018.39
2019-02-14T10:12:08.849Z,1018.37
2019-02-14T10:13:08.609Z,1018.35
2019-02-14T10:14:08.611Z,1018.32
2019-02-14T10:15:08.614Z,1018.33
2019-02-14T10:16:08.781Z,1018.32
2019-02-14T10:17:08.578Z,1018.31
2019-02-14T10:18:08.556Z,1018.27
2019-02-14T10:19:08.540Z,1018.26
2019-02-14T10:20:08.596Z,1018.28
2019-02-14T10:21:08.520Z,1018.25
2019-02-14T10:22:08.509Z,1018.25
2019-02-14T10:23:08.543Z,1018.26
2019-02-14T10:24:08.497Z,1018.25
2019-02-14T10:25:08.497Z,1018.26
2019-02-14T10:26:08.463Z,1018.24
2019-02-14T10:27:08.465Z,1018.16
2019-02-14T10:28:08.436Z,1018.17
2019-02-14T10:29:08.425Z,1018.18
2019-02-14T10:30:08.498Z,1018.19
2019-02-14T10:31:08.408Z,1018.15
2019-02-14T10:32:08.401Z,1018.17
2019-02-14T10:33:08.406Z,1018.16
2019-02-14T10:34:08.476Z,1018.17
2019-02-14T10:35:08.380Z,1018.11
2019-02-14T10:36:08.356Z,1018.16
2019-02-14T10:37:08.381Z,1018.16
2019-02-14T10:38:08.338Z,1018.15
2019-02-14T10:39:08.312Z,1018.18
2019-02-14T10:40:08.324Z,1018.10
2019-02-14T10:41:08.328Z,1018.06
2019-02-14T10:42:08.290Z,1018.09
2019-02-14T10:43:08.269Z,1018.15
2019-02-14T10:44:08.298Z,1018.11
2019-02-14T10:45:08.264Z,1018.08
2019-02-14T10:46:08.243Z,1018.12
2019-02-14T10:47:08.225Z,1018.12
2019-02-14T10:48:08.213Z,1018.10
2019-02-14T10:49:08.394Z,1018.10
2019-02-14T10:50:08.210Z,1018.08
2019-02-14T10:51:08.206Z,1018.04
2019-02-14T10:52:08.165Z,1018.07
2019-02-14T10:53:08.156Z,1018.08
2019-02-14T10:54:08.182Z,1018.05
2019-02-14T10:55:08.151Z,1018.09
2019-02-14T10:56:08.119Z,1018.03
2019-02-14T10:57:08.111Z,1018.03
2019-02-14T10:58:08.096Z,1018.02
2019-02-14T10:59:08.122Z,1017.99
2019-02-14T11:00:08.122Z,1018.01
2019-02-14T11:01:08.062Z,1018.03
2019-02-14T11:02:08.052Z,1017.91
2019-02-14T11:03:08.071Z,1017.93
2019-02-14T11:04:08.031Z,1017.98
2019-02-14T11:05:08.840Z,1018.01
2019-02-14T11:06:08.108Z,1017.98
2019-02-14T11:07:08.010Z,1017.98
2019-02-14T11:08:08.030Z,1018.01
2019-02-14T11:09:08.039Z,1017.96
2019-02-14T11:10:08.124Z,1017.93
2019-02-14T11:11:08.470Z,1017.96
2019-02-14T11:12:08.045Z,1017.95
2019-02-14T11:13:07.930Z,1018.01
2019-02-14T11:14:07.919Z,1017.98
2019-02-14T11:15:09.097Z,1017.95
2019-02-14T11:16:09.690Z,1017.98
2019-02-14T11:17:07.882Z,1018.00
2019-02-14T11:18:07.897Z,1017.93
2019-02-14T11:19:07.864Z,1017.92
2019-02-14T11:20:07.897Z,1017.96
2019-02-14T11:21:07.859Z,1017.87
2019-02-14T11:22:07.831Z,1017.84
2019-02-14T11:23:07.848Z,1017.78
2019-02-14T11:24:07.803Z,1017.78
2019-02-14T11:25:07.799Z,1017.75
2019-02-14T11:26:08.691Z,1017.75
2019-02-14T11:27:07.777Z,1017.74
2019-02-14T11:28:07.758Z,1017.70
2019-02-14T11:29:07.774Z,1017.74
2019-02-14T11:30:07.736Z,1017.69
2019-02-14T11:31:07.756Z,1017.75
2019-02-14T11:32:07.714Z,1017.63
2019-02-14T11:33:07.702Z,1017.67
2019-02-14T11:34:07.692Z,1017.66
2019-02-14T11:35:07.708Z,1017.64
2019-02-14T11:36:07.704Z,1017.67
2019-02-14T11:37:07.666Z,1017.66
2019-02-14T11:38:07.649Z,1017.65
2019-02-14T11:39:07.634Z,1017.64
2019-02-14T11:40:07.625Z,1017.64
2019-02-14T11:41:07.658Z,1017.65
2019-02-14T11:42:07.626Z,1017.61
2019-02-14T11:43:07.595Z,1017.64
2019-02-14T11:44:07.585Z,1017.55
2019-02-14T11:45:07.569Z,1017.59
2019-02-14T11:46:07.581Z,1017.54
2019-02-14T11:47:07.920Z,1017.57
2019-02-14T11:48:07.533Z,1017.57
2019-02-14T11:49:07.524Z,1017.56
2019-02-14T11:50:07.527Z,1017.54
2019-02-14T11:51:07.529Z,1017.53
2019-02-14T11:52:07.488Z,1017.57
2019-02-14T11:53:13.912Z,1017.55
2019-02-14T11:54:08.464Z,1017.54
2019-02-14T11:55:07.463Z,1017.55
2019-02-14T11:56:07.466Z,1017.57
2019-02-14T11:57:07.433Z,1017.53
2019-02-14T11:58:07.422Z,1017.49
2019-02-14T11:59:07.440Z,1017.51
2019-02-14T12:00:07.401Z,1017.44
2019-02-14T12:01:07.411Z,1017.37
2019-02-14T12:02:07.377Z,1017.45
2019-02-14T12:03:07.368Z,1017.40
2019-02-14T12:04:07.353Z,1017.38
2019-02-14T12:05:07.375Z,1017.36